Apopka, FL (32703)

5:47 PM EDT on August 27, 2016 (GMT -0400)
Apopka Weather | | Change Station

Elev 115 ft 28.70 °N, 81.51 °W | Updated 11 seconds ago

Scattered Clouds
Scattered Clouds
80.6 °F
Feels Like 87 °F
N
3.5
Wind Variable Wind from East
Gusts 3.5 mph

Today
High -- | Low -- °F
--% Chance of Precip.
Yesterday
High -- | Low -- °F
Precip. -- in
Pressure 29.95 in
Visibility 10.0 miles
Clouds Few 4200 ft
Scattered Clouds 7500 ft
Scattered Clouds 10000 ft
Heat Index 87 °F
Dew Point 77 °F
Humidity 89%
Rainfall 0.00 in
Snow Depth Not available.
7:01 AM 7:52 PM
Waning Crescent, 21% visible
SPECI KORL 272130Z 00000KT 10SM FEW042 SCT075 SCT100 27/24 A2995 RMK AO2 WSHFT 2041 RAE22 TSE24 P0022 T02720239
Pressure 29.95 in
Visibility 10.0 miles
Clouds Few 4200 ft
Scattered Clouds 7500 ft
Scattered Clouds 10000 ft
Heat Index 87 °F
Dew Point 77 °F
Humidity 89%
Rainfall 0.00 in
Snow Depth Not available.
7:01 AM 7:52 PM
Waning Crescent, 21% visible
SPECI KORL 272130Z 00000KT 10SM FEW042 SCT075 SCT100 27/24 A2995 RMK AO2 WSHFT 2041 RAE22 TSE24 P0022 T02720239

10-Day Weather Forecast

Almanac

Astronomy

Aug. 27, 2016 Rise Set
Actual Time
Civil Twilight
Nautical Twilight
Astronomical Twilight
Moon
Length of Visible Light
Length of Day
Tomorrow will be .
, % of the Moon is Illuminated

Today's Extremes

State Highs State Lows

Community

WunderPhotos

Upload Photos

1,935,455 photos uploaded!

WunderBlog® & News

Nearby

Air Quality

  Air Quality AQ Index Pollutant
Not available.

Snow Depth

Station Depth Elevation

Earthquake Activity

City Distance Mag. Time & Date
Minimum magnitude displayed is 2.5.

Coastal Water Temperatures

Place Temperature

Stations

Nearby Weather Stations

Station Location Temp. Windchill Dew Point Humidity Wind Precip. Elev Updated Type
                   

Watches & Warnings

There are currently no watches in effect.